Ladora, Iowa
Current Conditions -  °F | °C
As of 7:52 PM on Monday 20 Oct 2014 (Local Time) from KCID Reporting Station
Clear Clear  
Wind Chill: 53°   Ceiling: Unl
Heat Index: 53°   Visibility: 10mi
Dew Point: 42°   Wind: 6mph
Humidity: 66%   Direction: 320°NW
Pressure: 29.99"   Gusts: NA
Location:  41.75°N, 92.18°W
Report Text: KCID 210052Z 32005KT 10SM CLR 12/06 A2999 RMK AO2 SLP158 T01170056
Loading
Personal Weather Stations






























Interactive Weather Map
Tropical Storm Tracking
New forecast layout! Learn more

10-Day Weather Forecast

Advertisements
Track Severe Weather on mobile